This is the latest recevied weather packets stored in our database for station/object HK4RAU-16. If no packets are shown the sender has not sent any weather packets the latest 10 day(s).
| Time | Temp. | Humidity | Pressure | Rain* | Wind** | Luminosity | Snow |
|---|---|---|---|---|---|---|---|
| 1777322639 | 22.78° C | 62% | 1011 hPa | 0.25 mm | - | - | - |
| 1777322337 | 22.78° C | 60% | 1011 hPa | 0 mm | - | - | - |
| 1777322034 | 22.78° C | 60% | 1011 hPa | 0 mm | - | - | - |
| 1777321732 | 22.78° C | 57% | 1011 hPa | 0 mm | - | - | - |
| 1777321426 | 22.78° C | 57% | 1011 hPa | 0 mm | - | - | - |
| 1777321124 | 23.33° C | 55% | 1011 hPa | 0 mm | - | - | - |
| 1777320823 | 23.33° C | 55% | 1011 hPa | 0 mm | - | - | - |
| 1777320521 | 23.89° C | 55% | 1011 hPa | 0 mm | - | - | - |
| 1777320220 | 20° C | 59% | 1011 hPa | 0 mm | - | - | - |
| 1777319919 | 20.56° C | 59% | 1011 hPa | 0 mm | - | - | - |
| 1777319614 | 21.11° C | 59% | 1011 hPa | 0 mm | - | - | - |
| 1777319312 | 21.11° C | 59% | 1011 hPa | 0 mm | - | - | - |
| 1777319011 | 21.67° C | 59% | 1011 hPa | 0 mm | - | - | - |
| 1777318705 | 20° C | 60% | 1011 hPa | 0 mm | - | - | - |
| 1777318402 | 20° C | 60% | 1011 hPa | 0 mm | - | - | - |
| 1777318096 | 20.56° C | 60% | 1012 hPa | 0 mm | - | - | - |
| 1777317794 | 20.56° C | 60% | 1012 hPa | 0 mm | - | - | - |
| 1777317497 | 18.89° C | 69% | 1012 hPa | 0 mm | - | - | - |
| 1777317190 | 18.89° C | 69% | 1012 hPa | 0 mm | - | - | - |
| 1777316889 | 19.44° C | 69% | 1012 hPa | 0 mm | - | - | - |
| 1777316588 | 20° C | 69% | 1012 hPa | 0 mm | - | - | - |
| 1777315984 | 20.56° C | 69% | 1012 hPa | 0 mm | - | - | - |
| 1777315683 | 21.11° C | 69% | 1012 hPa | 0 mm | - | - | - |
| 1777315382 | 21.67° C | 69% | 1013 hPa | 0 mm | - | - | - |
| 1777315073 | 22.22° C | 69% | 1013 hPa | 0 mm | - | - | - |
* Rain latest hour (hover to see other rain measurements)
** Current wind speed in m/s (hover to see current wind gust speed)